Time;durP1;ratioP1;P1;durP2;ratioP2;P2;SDS_P1;SDS_P2;PMS_P1;PMS_P2;Temp;Humidity;BMP_temperature;BMP_pressure;BME280_temperature;BME280_humidity;BME280_pressure;Samples;Min_cycle;Max_cycle;Signal;HPM_P1;HPM_P2
2022/05/26 04:32:06;;;;;;;;;1.50;0.25;;;;;15.77;65.94;101957.66;1428050;26;46288;-73
2022/05/26 04:34:32;;;;;;;;;2.50;1.00;;;;;15.72;65.57;101944.38;5053182;28;48050;-73
2022/05/26 04:36:57;;;;;;;;;0.25;0.25;;;;;15.81;65.67;101956.59;5055158;28;45412;-73
2022/05/26 04:39:24;;;;;;;;;0.25;0.25;;;;;15.76;65.66;101948.69;5054850;28;45342;-73
2022/05/26 04:41:49;;;;;;;;;0.00;0.00;;;;;15.88;65.26;101961.63;5054631;28;45172;-73
2022/05/26 04:44:17;;;;;;;;;1.00;1.00;;;;;15.94;64.87;101971.25;5054457;28;46178;-73
2022/05/26 04:46:42;;;;;;;;;0.00;0.00;;;;;15.82;65.12;101958.34;5054879;28;45398;-75
2022/05/26 04:49:08;;;;;;;;;1.75;0.00;;;;;15.82;65.47;101953.78;5054790;28;45409;-75
2022/05/26 04:51:35;;;;;;;;;1.50;0.25;;;;;15.90;65.25;101961.53;5055209;28;45439;-75
2022/05/26 04:54:02;;;;;;;;;2.00;0.25;;;;;15.89;65.24;101960.66;5054954;28;47568;-73
2022/05/26 04:56:27;;;;;;;;;1.00;1.00;;;;;15.91;65.32;101971.38;5054439;28;45389;-76
2022/05/26 04:58:52;;;;;;;;;1.75;1.00;;;;;15.95;65.17;101977.53;5054554;28;45525;-73
2022/05/26 05:01:19;;;;;;;;;0.75;0.75;;;;;15.92;65.19;101980.38;5054372;28;45500;-73
2022/05/26 05:03:48;;;;;;;;;1.00;1.00;;;;;15.96;65.36;101987.41;5054185;28;46229;-73
2022/05/26 05:06:15;;;;;;;;;1.00;1.00;;;;;15.94;64.87;101978.47;5054155;28;45501;-76
2022/05/26 05:08:41;;;;;;;;;1.00;1.00;;;;;15.71;65.01;101945.34;5054175;28;45454;-74
2022/05/26 05:11:08;;;;;;;;;1.00;1.00;;;;;15.94;65.39;101986.59;5053126;28;45325;-73
2022/05/26 05:13:34;;;;;;;;;2.00;0.75;;;;;15.87;64.95;101969.81;5054002;28;45430;-74
2022/05/26 05:16:08;;;;;;;;;1.00;1.00;;;;;15.95;65.20;101986.53;5054037;28;45223;-71
2022/05/26 05:18:34;;;;;;;;;0.75;0.75;;;;;15.99;64.90;101982.72;5052913;28;45398;-72
2022/05/26 05:21:09;;;;;;;;;0.00;0.00;;;;;16.02;64.93;101993.38;5052171;28;46170;-71
2022/05/26 05:23:40;;;;;;;;;1.75;1.00;;;;;15.96;64.72;101987.41;5053922;28;45375;-72
2022/05/26 05:26:12;;;;;;;;;0.50;0.50;;;;;15.91;65.27;101986.78;5038216;28;45368;-74
2022/05/26 05:28:42;;;;;;;;;3.00;1.00;;;;;15.84;65.26;101957.28;5034111;28;45378;-75
2022/05/26 05:31:14;;;;;;;;;1.50;1.50;;;;;16.00;65.05;101991.69;5033900;28;45512;-75
2022/05/26 05:33:47;;;;;;;;;0.00;0.00;;;;;15.98;65.08;101993.63;5033733;28;45372;-73
2022/05/26 05:36:20;;;;;;;;;0.50;0.50;;;;;15.94;65.17;101995.59;5033370;28;45346;-75
2022/05/26 05:38:46;;;;;;;;;2.00;0.75;;;;;15.94;65.00;101990.19;5033989;28;45297;-73
2022/05/26 05:41:12;;;;;;;;;0.75;0.75;;;;;15.99;65.11;102008.91;5033705;28;45610;-70
2022/05/26 05:43:38;;;;;;;;;2.25;0.00;;;;;15.89;64.81;101989.53;5033707;28;45379;-71
2022/05/26 05:46:04;;;;;;;;;1.75;1.00;;;;;15.87;65.43;101999.53;5033677;28;45367;-72
2022/05/26 05:48:30;;;;;;;;;0.25;0.25;;;;;15.89;65.45;102008.47;5033749;28;45578;-72
2022/05/26 05:50:55;;;;;;;;;1.75;0.00;;;;;15.85;65.18;102006.84;5041916;28;45403;-74
2022/05/26 05:53:21;;;;;;;;;0.75;0.75;;;;;15.87;65.43;102005.84;5053788;28;46271;-71
2022/05/26 05:55:46;;;;;;;;;0.00;0.00;;;;;15.84;65.17;101995.16;5052809;28;45500;-72
2022/05/26 05:58:12;;;;;;;;;1.25;0.00;;;;;16.00;65.31;102018.75;5054135;28;45347;-72
2022/05/26 06:00:39;;;;;;;;;0.00;0.00;;;;;16.01;64.62;102013.28;5053814;28;45639;-69
2022/05/26 06:03:05;;;;;;;;;0.00;0.00;;;;;16.08;64.34;102024.66;5053549;28;46255;-70
2022/05/26 06:05:31;;;;;;;;;1.00;1.00;;;;;16.08;64.74;102024.66;5052998;28;45562;-71
2022/05/26 06:07:57;;;;;;;;;1.00;1.00;;;;;16.13;64.53;102018.09;5053638;28;45291;-71
2022/05/26 06:10:23;;;;;;;;;0.50;0.50;;;;;16.14;64.50;102024.38;5053413;28;45559;-70
2022/05/26 06:12:49;;;;;;;;;0.00;0.00;;;;;16.19;64.35;102025.91;5053348;28;45330;-70
2022/05/26 06:15:14;;;;;;;;;0.00;0.00;;;;;16.17;64.33;102016.09;5053132;28;45437;-70
2022/05/26 06:17:40;;;;;;;;;1.25;0.75;;;;;16.28;64.35;102040.81;5053398;28;45415;-69
2022/05/26 06:20:07;;;;;;;;;0.00;0.00;;;;;16.21;63.55;102024.00;5052647;28;45299;-69
2022/05/26 06:22:35;;;;;;;;;0.25;0.25;;;;;16.27;63.79;102036.34;5056614;28;46350;-69
2022/05/26 06:25:02;;;;;;;;;1.50;1.50;;;;;16.32;63.39;102044.25;5050097;28;45382;-71
2022/05/26 06:30:15;;;;;;;;;0.00;0.00;;;;;16.43;63.69;102056.28;5036685;28;45235;-75
